Menomonie, Wisconsin
Current Conditions -  °F | °C
As of 2:35 PM on Friday 28 Nov 2014 (Local Time) from KLUM Reporting Station
Overcast Overcast  
Wind Chill: 14°   Ceiling: 7000
Heat Index: 23°   Visibility: 10mi
Dew Point: 14°   Wind: 8mph
Humidity: 70%   Direction: 90°E
Pressure: 29.88"   Gusts: NA
Location:  44.88°N, 91.93°W
Report Text: KLUM 282035Z AUTO 09007KT 10SM OVC070 M05/M10 A2988 RMK AO2 T10501098
Loading
Personal Weather Stations






























Interactive Weather Map New forecast layout! Learn more

10-Day Weather Forecast

Advertisements
Track Severe Weather on mobile